Airfield :
LOGIN :

Register | Disclaimer

   EN    FR    IT 

 










Legend :    VFR   Marginal VFR   IFR   Intensive IFR   Very Intensive IFR
Visi :
Ceiling :
>= 8 km
>= 3000ft
5 to 8 km
1000 to 3000 ft
1500m to 5 km
500 to 1000 ft
800 to 1500m
200 to 500 ft
< 800m
< 200 ft
Symbols :   Thunderstorms  Fog  Heavy snow  Heavy precipitations  Wind > 20 kt
SIGMETs :     Misc.  Thunderstorms  Icing  Turbulence  Mountain Waves  Volcanic Ashes






- Airport Elevation : 1910 ft
- IATA code : RDZ


LFCR - Rodez

CURRENT METAR :
  • 270700Z AUTO 28013KT 9999 BKN010 BKN019 OVC027 05/04 Q1012 BECMG 4000 -RA

EXPIRED METARs :
  • 270630Z AUTO 28011KT 9999 BKN007 BKN012 OVC019 05/04 Q1012 BECMG 4000 -RA
  • 270600Z AUTO 28014KT 9999 BKN005 OVC036 04/04 Q1012 BECMG 4000 -RA
  • 270530Z AUTO 29013KT 9999 OVC004 04/04 Q1012 BECMG 4000 -RA BKN005
  • 270500Z AUTO 29011KT 9999 OVC003 04/04 Q1012 TEMPO 2000 -RADZ
  • 270430Z AUTO 30012KT 7000 OVC002 04/04 Q1011 TEMPO 2000 -RADZ

TAF TAF LFCR
Valid from the 27 at 06:00 until the 28 at 06:00 UTC


270500Z 2706/2806 29012KT 9999 BKN007
TEMPO 2706/2707 2000 -RADZ OVC002
BECMG 2707/2709 4000 -RA BKN005
TEMPO 2709/2806 1200 RA OVC002
PROB40
TEMPO 2712/2719 30015G25KT



MET'MAP, your aeronautical weather chart ! - Copyright ORBIFLY December 2007 - Disclaimer

ORBIFLY MET'MAP TEAM :

Programming & Development : Alexandra Zaïnal
Concept & original design : Baudouin d'Aumeries
Assistance for programming : Marc-Olivier Méhu
Technical & hardware support : Manuel Goepfert

Contact : metmap@orbifly.com




SOURCES & CREDITS :

   NOAA